Time;durP1;ratioP1;P1;durP2;ratioP2;P2;SDS_P1;SDS_P2;PMS_P1;PMS_P2;Temp;Humidity;BMP_temperature;BMP_pressure;BME280_temperature;BME280_humidity;BME280_pressure;Samples;Min_cycle;Max_cycle;Signal;HPM_P1;HPM_P2
2020/12/18 00:01:27;;;;;;;5.07;4.40;;;;;;;13.45;59.13;101548.03;5005079;27;98033;-58
2020/12/18 00:03:54;;;;;;;4.68;4.20;;;;;;;13.42;58.89;101553.97;4986683;27;98837;-58
2020/12/18 00:06:21;;;;;;;5.03;4.53;;;;;;;13.43;59.13;101554.78;5005194;27;98791;-58
2020/12/18 00:08:47;;;;;;;5.85;4.25;;;;;;;13.42;58.90;101555.88;5003660;27;114786;-58
2020/12/18 00:11:24;;;;;;;4.43;4.00;;;;;;;13.39;58.91;101553.66;5002795;27;108310;-58
2020/12/18 00:13:50;;;;;;;4.35;3.88;;;;;;;13.41;58.64;101557.75;5003073;27;98503;-58
2020/12/18 00:16:18;;;;;;;5.47;3.95;;;;;;;13.39;58.50;101554.47;5008539;27;98939;-58
2020/12/18 00:18:44;;;;;;;5.45;4.03;;;;;;;13.39;58.76;101559.09;5007426;27;113671;-58
2020/12/18 00:21:10;;;;;;;5.88;4.00;;;;;;;13.39;58.59;101557.19;5008226;27;109396;-58
2020/12/18 00:23:36;;;;;;;4.90;4.10;;;;;;;13.38;58.60;101552.03;5003016;27;129231;-57
2020/12/18 00:26:02;;;;;;;4.65;3.88;;;;;;;13.40;58.82;101552.59;5003648;27;128388;-58
2020/12/18 00:28:28;;;;;;;4.90;4.30;;;;;;;13.39;58.17;101549.06;5003497;27;117962;-59
2020/12/18 00:30:54;;;;;;;4.22;3.80;;;;;;;13.38;58.43;101554.75;5002806;27;122813;-58
2020/12/18 00:33:20;;;;;;;4.57;4.05;;;;;;;13.36;58.26;101548.75;5003700;27;111409;-58
2020/12/18 00:35:46;;;;;;;4.38;3.80;;;;;;;13.35;58.41;101550.66;5002458;27;99291;-58
2020/12/18 00:38:12;;;;;;;5.50;4.20;;;;;;;13.35;58.41;101555.25;5003294;27;126883;-58
2020/12/18 00:40:38;;;;;;;4.78;4.05;;;;;;;13.34;58.25;101559.06;5003504;27;122964;-58
2020/12/18 00:43:04;;;;;;;5.75;4.35;;;;;;;13.32;58.31;101553.88;5006477;27;127807;-58
2020/12/18 00:45:30;;;;;;;5.03;4.07;;;;;;;13.31;58.27;101559.56;5021027;27;125088;-58
2020/12/18 00:47:56;;;;;;;5.18;4.03;;;;;;;13.30;58.11;101557.94;5021287;27;126889;-58
2020/12/18 00:50:22;;;;;;;4.57;4.13;;;;;;;13.29;58.11;101556.31;5005236;27;113009;-58
2020/12/18 00:52:48;;;;;;;4.93;4.13;;;;;;;13.25;58.22;101562.25;5004680;27;121038;-58
2020/12/18 00:55:14;;;;;;;4.95;4.22;;;;;;;13.22;58.07;101568.13;5021987;27;115283;-58
2020/12/18 00:57:40;;;;;;;4.95;4.00;;;;;;;13.21;57.95;101565.69;5022692;27;127497;-58
2020/12/18 01:00:07;;;;;;;4.38;3.97;;;;;;;13.18;58.13;101569.72;5003982;27;123617;-58
2020/12/18 01:02:33;;;;;;;4.97;4.32;;;;;;;13.18;58.08;101571.63;5001757;27;98339;-58
2020/12/18 01:04:59;;;;;;;4.85;3.75;;;;;;;13.17;57.96;101568.09;5020029;27;119510;-58
2020/12/18 01:07:26;;;;;;;5.03;4.25;;;;;;;13.15;58.01;101572.13;5022416;27;97789;-58
2020/12/18 01:09:52;;;;;;;4.18;3.78;;;;;;;13.12;57.99;101578.06;5008494;27;123554;-58
2020/12/18 01:12:18;;;;;;;4.95;4.35;;;;;;;13.12;58.00;101588.88;5016848;27;128611;-59
2020/12/18 01:14:44;;;;;;;5.43;4.50;;;;;;;13.11;57.83;101581.84;5023102;27;110934;-58
2020/12/18 01:17:10;;;;;;;4.93;4.30;;;;;;;13.07;57.43;101573.41;5023149;27;127641;-58
2020/12/18 01:19:36;;;;;;;5.05;4.32;;;;;;;13.07;57.87;101578.03;5021669;27;97848;-58
2020/12/18 01:22:03;;;;;;;4.88;4.18;;;;;;;13.04;57.82;101582.03;5022624;27;127949;-57
2020/12/18 01:24:29;;;;;;;5.28;4.32;;;;;;;13.01;57.70;101580.69;5013905;27;100990;-58
2020/12/18 01:26:55;;;;;;;5.90;4.63;;;;;;;13.02;57.78;101581.50;5003582;27;98049;-58
2020/12/18 01:29:21;;;;;;;5.13;4.47;;;;;;;12.97;57.57;101584.97;5002419;27;122814;-58
2020/12/18 01:31:47;;;;;;;4.80;4.30;;;;;;;12.97;58.01;101589.59;5001645;27;128281;-58
2020/12/18 01:34:13;;;;;;;5.07;4.55;;;;;;;12.96;57.63;101594.16;5001292;27;98884;-58
2020/12/18 01:36:39;;;;;;;5.45;4.70;;;;;;;12.95;57.46;101591.72;5002928;27;109392;-58
2020/12/18 01:39:05;;;;;;;4.97;4.40;;;;;;;12.93;57.01;101593.84;5008123;27;122792;-58
2020/12/18 01:41:32;;;;;;;5.60;4.70;;;;;;;12.91;57.52;101588.69;5020879;27;99029;-58
2020/12/18 01:43:58;;;;;;;5.82;4.68;;;;;;;12.90;57.40;101583.56;5022240;27;111339;-58
2020/12/18 01:46:27;;;;;;;5.55;4.90;;;;;;;12.86;57.37;101583.25;5021738;27;124592;-58
2020/12/18 01:48:54;;;;;;;5.75;4.45;;;;;;;12.84;57.38;101574.56;5021046;27;97889;-58
2020/12/18 01:51:20;;;;;;;5.32;4.65;;;;;;;12.83;57.62;101572.94;5020335;27;118051;-58
2020/12/18 01:53:46;;;;;;;6.57;4.90;;;;;;;12.80;57.08;101575.31;5002984;27;128037;-58
2020/12/18 01:56:12;;;;;;;5.40;4.90;;;;;;;12.80;57.17;101570.72;5019963;27;125836;-58
2020/12/18 01:58:41;;;;;;;6.10;4.72;;;;;;;12.78;57.30;101578.28;5020480;27;97934;-57
2020/12/18 02:01:08;;;;;;;5.60;4.93;;;;;;;12.76;57.07;101580.44;5020507;27;98766;-58
2020/12/18 02:03:36;;;;;;;6.38;4.70;;;;;;;12.73;57.09;101576.34;5020653;27;114231;-58
2020/12/18 02:06:11;;;;;;;5.30;4.80;;;;;;;12.72;57.10;101582.00;5023124;27;98142;-58
2020/12/18 02:08:37;;;;;;;5.22;4.70;;;;;;;12.70;56.86;101582.28;5003292;27;110862;-58
2020/12/18 02:11:03;;;;;;;5.32;4.63;;;;;;;12.70;57.11;101582.28;5002642;27;117517;-58
2020/12/18 02:13:29;;;;;;;5.68;4.78;;;;;;;12.69;56.87;101587.91;5019706;27;128124;-58
2020/12/18 02:15:56;;;;;;;5.57;4.70;;;;;;;12.69;57.06;101586.06;4995574;27;126855;-58
2020/12/18 02:18:23;;;;;;;5.25;4.75;;;;;;;12.68;57.15;101586.28;5020185;27;98085;-58
2020/12/18 02:20:53;;;;;;;5.38;4.68;;;;;;;12.68;56.76;101589.81;5002639;27;98625;-58
2020/12/18 02:23:19;;;;;;;4.97;4.38;;;;;;;12.65;56.74;101584.91;4999899;27;119149;-58
2020/12/18 02:26:01;;;;;;;5.57;4.90;;;;;;;12.63;56.71;101581.66;5020208;27;126922;-58
2020/12/18 02:28:27;;;;;;;5.60;4.70;;;;;;;12.61;56.59;101588.38;5005370;27;115261;-58
2020/12/18 02:30:53;;;;;;;5.90;4.68;;;;;;;12.60;56.70;101584.03;5021525;27;127660;-58
2020/12/18 02:33:19;;;;;;;5.07;4.53;;;;;;;12.58;57.19;101586.19;5021718;27;126796;-58
2020/12/18 02:35:45;;;;;;;4.85;4.35;;;;;;;12.58;57.22;101588.91;5008061;27;127566;-59
2020/12/18 02:38:11;;;;;;;6.55;4.85;;;;;;;12.57;56.52;101585.34;5002109;27;98020;-58
2020/12/18 02:40:37;;;;;;;6.03;4.70;;;;;;;12.56;56.61;101582.91;5015308;27;122050;-58
2020/12/18 02:43:03;;;;;;;5.43;4.35;;;;;;;12.53;56.42;101587.75;4999065;27;127927;-58
2020/12/18 02:45:30;;;;;;;5.20;4.43;;;;;;;12.52;56.66;101582.59;5002049;27;128053;-58
2020/12/18 02:47:56;;;;;;;5.38;4.60;;;;;;;12.51;56.40;101587.19;5000365;27;103715;-58
2020/12/18 02:50:22;;;;;;;5.38;4.70;;;;;;;12.49;56.50;101592.03;5000648;27;128463;-58
2020/12/18 02:52:48;;;;;;;5.53;4.40;;;;;;;12.47;56.53;101596.88;5001832;27;98450;-58
2020/12/18 02:55:14;;;;;;;4.60;4.03;;;;;;;12.46;56.25;101595.25;5000384;27;126930;-58
2020/12/18 02:57:40;;;;;;;4.60;3.97;;;;;;;12.42;56.02;101591.44;4999799;27;123678;-58
2020/12/18 03:00:06;;;;;;;4.97;4.20;;;;;;;12.44;56.21;101593.88;4992616;27;128132;-58
2020/12/18 03:02:32;;;;;;;5.32;4.60;;;;;;;12.42;56.25;101594.13;5016466;27;116497;-58
2020/12/18 03:04:58;;;;;;;5.07;4.30;;;;;;;12.40;56.15;101587.34;4998928;27;130071;-58
2020/12/18 03:07:24;;;;;;;5.35;4.57;;;;;;;12.40;55.98;101585.44;4995849;27;122671;-58
2020/12/18 03:09:50;;;;;;;6.03;4.60;;;;;;;12.37;56.12;101585.13;5008941;27;126858;-57
2020/12/18 03:12:16;;;;;;;5.72;4.50;;;;;;;12.36;55.97;101595.13;5001345;27;125915;-58
2020/12/18 03:14:42;;;;;;;6.10;4.65;;;;;;;12.34;55.88;101589.16;5001741;27;97928;-58
2020/12/18 03:17:08;;;;;;;6.05;4.38;;;;;;;12.32;55.67;101593.19;5000238;27;122968;-58
2020/12/18 03:19:35;;;;;;;6.47;4.65;;;;;;;12.30;56.03;101596.16;4985829;27;122029;-58
2020/12/18 03:22:01;;;;;;;6.30;4.63;;;;;;;12.29;56.13;101589.09;5001590;27;98552;-58
2020/12/18 03:24:27;;;;;;;5.85;4.50;;;;;;;12.29;55.92;101595.31;4998619;27;128042;-58
2020/12/18 03:26:53;;;;;;;4.95;4.43;;;;;;;12.29;55.84;101589.09;5001612;27;98013;-58
2020/12/18 03:29:19;;;;;;;5.93;4.90;;;;;;;12.28;55.63;101592.88;5000616;27;98437;-58
2020/12/18 03:31:45;;;;;;;6.22;4.40;;;;;;;12.27;55.60;101602.06;5001575;27;99190;-58
2020/12/18 03:34:11;;;;;;;5.30;4.22;;;;;;;12.27;55.34;101596.66;5000912;27;127329;-58
2020/12/18 03:36:37;;;;;;;5.40;4.40;;;;;;;12.28;55.69;101609.91;5000503;27;121051;-57
2020/12/18 03:39:08;;;;;;;5.90;4.70;;;;;;;12.29;55.52;101603.41;5001494;27;98444;-58
2020/12/18 03:41:34;;;;;;;7.00;5.20;;;;;;;12.32;55.04;101598.59;5001130;27;98402;-58
2020/12/18 03:44:01;;;;;;;5.13;4.22;;;;;;;12.32;55.27;101595.88;5001048;27;98134;-58
2020/12/18 03:46:27;;;;;;;5.55;4.70;;;;;;;12.31;55.43;101605.06;5001430;27;97857;-58
2020/12/18 03:48:53;;;;;;;5.13;4.53;;;;;;;12.31;55.19;101597.78;5001250;27;128822;-58
2020/12/18 03:51:20;;;;;;;5.47;4.90;;;;;;;12.34;55.41;101599.97;5001457;27;98586;-58
2020/12/18 03:53:47;;;;;;;5.30;4.50;;;;;;;12.32;55.06;101599.41;5014143;27;98237;-58
2020/12/18 03:56:13;;;;;;;6.43;4.68;;;;;;;12.29;54.92;101610.72;5009078;27;98016;-58
2020/12/18 03:58:39;;;;;;;5.78;5.03;;;;;;;12.31;54.63;101605.06;5006021;27;120523;-58
2020/12/18 04:01:05;;;;;;;5.97;5.10;;;;;;;12.28;55.11;101603.69;5020407;27;126389;-58
2020/12/18 04:03:31;;;;;;;6.20;4.40;;;;;;;12.29;54.90;101603.41;5020423;27;126423;-58
2020/12/18 04:05:57;;;;;;;6.28;5.00;;;;;;;12.27;54.95;101607.47;5020132;27;120196;-58
2020/12/18 04:08:23;;;;;;;5.05;4.55;;;;;;;12.26;54.75;101624.72;5019969;27;128117;-58
2020/12/18 04:10:50;;;;;;;5.05;4.50;;;;;;;12.24;54.97;101621.47;5002837;27;98643;-58
2020/12/18 04:13:16;;;;;;;5.45;4.65;;;;;;;12.23;54.50;101617.94;5001979;27;98008;-58
2020/12/18 04:15:42;;;;;;;6.03;4.70;;;;;;;12.20;54.82;101625.75;5003899;27;123727;-58
2020/12/18 04:18:10;;;;;;;5.55;4.45;;;;;;;12.19;54.46;101626.81;5004182;27;98961;-58
2020/12/18 04:20:36;;;;;;;5.47;4.50;;;;;;;12.17;54.62;101618.13;5021612;27;98224;-58
2020/12/18 04:23:03;;;;;;;4.78;4.18;;;;;;;12.16;54.35;101619.19;5024137;27;98561;-58
2020/12/18 04:25:29;;;;;;;5.25;4.53;;;;;;;12.12;54.34;101618.88;5005547;27;104553;-57
2020/12/18 04:27:55;;;;;;;4.72;3.95;;;;;;;12.15;54.34;101628.38;5022096;27;115995;-57
2020/12/18 04:30:21;;;;;;;5.05;4.35;;;;;;;12.12;54.82;101618.06;5007125;27;98975;-57
2020/12/18 04:32:47;;;;;;;4.93;4.40;;;;;;;12.10;54.49;101623.69;5003327;27;127514;-58
2020/12/18 04:35:13;;;;;;;4.95;4.25;;;;;;;12.08;54.89;101630.44;5002511;27;123846;-58
2020/12/18 04:37:39;;;;;;;6.10;4.30;;;;;;;12.07;54.37;101629.63;5002016;27;128040;-59
2020/12/18 04:40:05;;;;;;;5.63;4.50;;;;;;;12.07;54.52;101628.81;5017914;27;121215;-58
2020/12/18 04:42:35;;;;;;;5.72;4.50;;;;;;;12.02;54.10;101627.69;5023743;27;127317;-58
2020/12/18 04:45:02;;;;;;;6.25;4.93;;;;;;;12.06;54.35;101621.75;5022258;27;97794;-58
2020/12/18 04:47:28;;;;;;;5.82;4.85;;;;;;;11.99;54.52;101621.94;5024379;27;117642;-58
2020/12/18 04:49:54;;;;;;;6.00;4.80;;;;;;;11.99;54.42;101625.47;4974125;27;127203;-58
2020/12/18 04:52:22;;;;;;;5.75;4.88;;;;;;;11.98;54.13;101623.81;4984869;27;127646;-58
2020/12/18 04:54:48;;;;;;;9.10;5.20;;;;;;;11.98;54.45;101623.00;5013297;27;97839;-58
2020/12/18 04:57:16;;;;;;;6.18;4.88;;;;;;;11.95;54.35;101627.03;4995033;27;118870;-58
2020/12/18 04:59:43;;;;;;;5.97;5.05;;;;;;;11.96;54.84;101630.53;4991793;27;120026;-58
2020/12/18 05:02:09;;;;;;;6.60;4.97;;;;;;;11.93;54.11;101631.84;5003920;27;98196;-58
2020/12/18 05:04:42;;;;;;;6.80;5.03;;;;;;;11.93;54.67;101636.44;5003151;27;123257;-58
2020/12/18 05:07:08;;;;;;;6.97;5.35;;;;;;;11.91;54.71;101634.00;4993804;27;98326;-58
2020/12/18 05:09:35;;;;;;;6.50;4.78;;;;;;;11.91;54.35;101639.41;5013555;27;98746;-58
2020/12/18 05:12:06;;;;;;;6.28;5.30;;;;;;;11.88;54.36;101642.59;5002570;27;128041;-58
2020/12/18 05:14:32;;;;;;;5.97;4.93;;;;;;;11.89;54.15;101643.41;5020755;27;98029;-58
2020/12/18 05:17:06;;;;;;;6.60;5.05;;;;;;;11.85;53.99;101648.47;5022959;27;124284;-57
2020/12/18 05:19:42;;;;;;;6.78;5.32;;;;;;;11.85;54.02;101653.06;5023395;27;120130;-58
2020/12/18 05:22:11;;;;;;;6.38;4.78;;;;;;;11.85;54.31;101648.47;5023331;27;97981;-58
2020/12/18 05:24:38;;;;;;;6.38;4.93;;;;;;;11.84;54.30;101654.16;5005665;27;102493;-58
2020/12/18 05:27:04;;;;;;;5.82;4.85;;;;;;;11.85;54.30;101659.28;5023230;27;97796;-58
2020/12/18 05:29:31;;;;;;;7.18;5.22;;;;;;;11.84;53.94;101663.06;5020687;27;119751;-58
2020/12/18 05:32:01;;;;;;;6.53;5.00;;;;;;;11.83;53.93;101663.25;5023335;27;102223;-58
2020/12/18 05:34:27;;;;;;;6.80;5.00;;;;;;;11.83;54.69;101661.44;5018179;27;97964;-58
2020/12/18 05:36:54;;;;;;;7.05;5.43;;;;;;;11.82;53.69;101662.44;5002177;27;117750;-58
2020/12/18 05:39:20;;;;;;;6.82;5.50;;;;;;;11.83;54.10;101664.13;5002919;27;116225;-58
2020/12/18 05:41:59;;;;;;;5.85;4.90;;;;;;;11.75;54.05;101659.94;5000348;27;119509;-58
2020/12/18 05:44:27;;;;;;;7.57;5.88;;;;;;;11.76;53.83;101661.56;5017175;27;97927;-58
2020/12/18 05:47:00;;;;;;;8.13;5.78;;;;;;;11.74;53.96;101652.88;5022675;27;108412;-58
2020/12/18 05:49:38;;;;;;;8.55;6.20;;;;;;;11.72;53.96;101654.19;5020873;27;117067;-58
2020/12/18 05:52:05;;;;;;;8.10;6.25;;;;;;;11.71;54.35;101656.09;4998418;27;97999;-58
2020/12/18 05:54:33;;;;;;;7.82;6.40;;;;;;;11.73;54.25;101653.94;5003243;27;97839;-58
2020/12/18 05:57:07;;;;;;;9.23;6.57;;;;;;;11.71;54.41;101666.91;5018384;27;99258;-58
2020/12/18 05:59:33;;;;;;;7.72;6.53;;;;;;;11.71;54.02;101661.50;4993745;27;116770;-58
2020/12/18 06:01:59;;;;;;;8.32;6.53;;;;;;;11.69;53.75;101660.09;4966212;27;128075;-58
2020/12/18 06:04:25;;;;;;;9.82;7.00;;;;;;;11.69;53.71;101665.50;5003425;27;97994;-58
2020/12/18 06:06:55;;;;;;;8.32;6.30;;;;;;;11.64;54.01;101666.22;5023352;27;97849;-58
2020/12/18 06:09:26;;;;;;;10.55;7.28;;;;;;;11.66;53.32;101671.38;5021360;27;113351;-58
2020/12/18 06:11:52;;;;;;;9.48;7.43;;;;;;;11.64;53.72;101671.63;5022944;27;98348;-58
2020/12/18 06:14:18;;;;;;;9.73;7.07;;;;;;;11.65;53.50;101673.25;5021672;27;113914;-58
2020/12/18 06:16:52;;;;;;;10.18;7.40;;;;;;;11.62;54.30;101681.03;5001919;27;115075;-58
2020/12/18 06:19:20;;;;;;;11.20;7.63;;;;;;;11.63;54.02;101685.38;5002400;27;107954;-58
2020/12/18 06:21:54;;;;;;;10.52;8.23;;;;;;;11.61;54.15;101682.09;5002285;27;98526;-58
2020/12/18 06:24:20;;;;;;;9.68;7.75;;;;;;;11.63;54.05;101682.66;5003485;27;97910;-58
2020/12/18 06:26:46;;;;;;;9.98;7.78;;;;;;;11.61;53.57;101691.03;5002338;27;98456;-58
2020/12/18 06:29:16;;;;;;;9.85;7.90;;;;;;;11.57;53.82;101691.75;5008040;27;117053;-58
2020/12/18 06:31:42;;;;;;;11.30;8.40;;;;;;;11.58;54.09;101691.50;5020725;27;98148;-58
2020/12/18 06:34:10;;;;;;;11.95;7.72;;;;;;;11.60;53.91;101693.97;5021157;27;112306;-57
2020/12/18 06:36:57;;;;;;;9.55;7.50;;;;;;;11.53;53.81;101694.94;5020932;27;98471;-58
2020/12/18 06:39:36;;;;;;;11.07;8.02;;;;;;;11.53;53.65;101707.63;5019916;27;98257;-58
2020/12/18 06:42:32;;;;;;;11.55;7.75;;;;;;;11.53;53.38;101710.31;5019538;27;128659;-58
2020/12/18 06:44:59;;;;;;;10.25;7.68;;;;;;;11.53;53.18;101704.94;5018799;27;97812;-58
2020/12/18 06:47:25;;;;;;;11.43;8.23;;;;;;;11.53;53.46;101708.44;5019249;27;98837;-58
2020/12/18 06:50:06;;;;;;;10.55;8.30;;;;;;;11.51;53.38;101707.88;5001628;27;99296;-58
2020/12/18 06:52:42;;;;;;;9.93;7.75;;;;;;;11.52;53.28;101703.31;4999439;27;98163;-58
2020/12/18 06:55:32;;;;;;;11.07;8.63;;;;;;;11.52;53.67;101714.09;5000012;27;97794;-58
2020/12/18 06:58:10;;;;;;;11.27;8.35;;;;;;;11.47;53.30;101716.69;5000590;27;98885;-58
2020/12/18 07:00:56;;;;;;;12.27;8.15;;;;;;;11.48;53.85;101712.94;5004951;27;97960;-58
2020/12/18 07:03:46;;;;;;;11.63;8.98;;;;;;;11.46;53.24;101706.97;4999321;27;98324;-58
2020/12/18 07:06:27;;;;;;;13.00;8.68;;;;;;;11.43;53.75;101710.13;4981568;27;97785;-58
2020/12/18 07:08:54;;;;;;;13.75;8.40;;;;;;;11.45;53.67;101703.44;4981576;27;99122;-58
2020/12/18 07:11:20;;;;;;;12.02;8.50;;;;;;;11.45;53.40;101713.44;4980228;27;118741;-58
2020/12/18 07:13:49;;;;;;;11.27;8.18;;;;;;;11.46;53.37;101706.97;4977351;27;98544;-58
2020/12/18 07:16:19;;;;;;;13.15;8.63;;;;;;;11.48;53.47;101711.06;4999439;27;98032;-58
2020/12/18 07:18:45;;;;;;;10.13;8.05;;;;;;;11.47;53.21;101705.88;4984123;27;97961;-58
2020/12/18 07:21:16;;;;;;;10.63;7.95;;;;;;;11.46;53.44;101707.78;5019747;27;98488;-58
2020/12/18 07:23:47;;;;;;;11.60;8.18;;;;;;;11.49;53.48;101701.88;5018805;27;98073;-58
2020/12/18 07:26:14;;;;;;;11.23;8.40;;;;;;;11.50;53.50;101700.00;5018324;27;97891;-57
2020/12/18 07:28:41;;;;;;;9.93;8.15;;;;;;;11.52;53.57;101695.19;5019344;27;98212;-58
2020/12/18 07:31:24;;;;;;;11.57;8.15;;;;;;;11.50;53.24;101697.31;5016804;27;103986;-58
2020/12/18 07:33:58;;;;;;;9.70;8.25;;;;;;;11.51;53.44;101701.63;4998824;27;98213;-58
2020/12/18 07:36:26;;;;;;;10.93;8.38;;;;;;;11.55;53.84;101697.38;5018616;27;97738;-58
2020/12/18 07:38:57;;;;;;;11.55;8.15;;;;;;;11.60;53.94;101700.19;5017082;27;98442;-58
2020/12/18 07:41:24;;;;;;;10.25;7.88;;;;;;;11.63;54.21;101696.16;5019806;27;98482;-58
2020/12/18 07:43:50;;;;;;;10.95;8.27;;;;;;;11.69;53.74;101706.00;5018623;27;98420;-57
2020/12/18 07:46:17;;;;;;;10.77;8.07;;;;;;;11.74;53.99;101703.38;5022113;27;104760;-58
2020/12/18 07:48:44;;;;;;;9.95;7.45;;;;;;;11.82;54.17;101700.25;5018820;27;99386;-58
2020/12/18 07:51:21;;;;;;;9.55;7.95;;;;;;;11.86;54.19;101698.75;5002515;27;99139;-58
2020/12/18 07:53:50;;;;;;;10.50;7.75;;;;;;;11.94;53.67;101695.63;5003451;27;97850;-59
2020/12/18 07:56:18;;;;;;;12.93;8.70;;;;;;;11.93;52.35;101695.88;5023193;27;97894;-58
2020/12/18 07:59:06;;;;;;;11.73;8.35;;;;;;;11.93;52.60;101695.88;5002090;27;116885;-58
2020/12/18 08:01:33;;;;;;;10.32;8.80;;;;;;;12.07;53.58;101699.91;5022902;27;98476;-58
2020/12/18 08:04:00;;;;;;;10.32;8.30;;;;;;;12.23;54.09;101698.22;5022423;27;98030;-58
2020/12/18 08:06:29;;;;;;;10.38;8.07;;;;;;;12.41;54.17;101702.53;5021656;27;97678;-58
2020/12/18 08:09:03;;;;;;;10.13;8.15;;;;;;;12.55;54.79;101698.41;5016743;27;119508;-58
2020/12/18 08:11:31;;;;;;;9.73;8.13;;;;;;;12.75;54.45;101701.34;4983311;27;115460;-58
2020/12/18 08:13:58;;;;;;;11.50;8.55;;;;;;;12.86;55.16;101701.50;4996724;27;108347;-58
2020/12/18 08:16:29;;;;;;;9.80;7.70;;;;;;;13.02;54.52;101703.31;5003187;27;97920;-58
2020/12/18 08:19:00;;;;;;;10.68;8.10;;;;;;;13.18;54.68;101696.97;5010234;27;98354;-58
2020/12/18 08:21:31;;;;;;;10.07;7.63;;;;;;;13.37;54.71;101700.19;5022889;27;98716;-58
2020/12/18 08:24:14;;;;;;;10.80;8.00;;;;;;;13.58;54.59;101700.38;5021588;27;107372;-58
2020/12/18 08:26:55;;;;;;;11.30;7.97;;;;;;;13.86;54.48;101688.41;4979293;27;98033;-58
2020/12/18 08:29:22;;;;;;;10.55;8.32;;;;;;;14.10;54.11;101680.69;4968481;27;112681;-58
2020/12/18 08:31:48;;;;;;;9.20;7.68;;;;;;;14.30;53.90;101680.00;4971410;27;98966;-58
2020/12/18 08:34:30;;;;;;;10.10;8.00;;;;;;;14.50;54.26;101680.13;4982179;27;127482;-58
2020/12/18 08:36:57;;;;;;;9.93;7.75;;;;;;;14.71;54.07;101679.16;5001321;27;111891;-58
2020/12/18 08:39:26;;;;;;;9.77;7.72;;;;;;;14.78;54.35;101688.97;5002042;27;98195;-58
2020/12/18 08:41:53;;;;;;;11.35;8.40;;;;;;;14.98;54.19;101689.03;4989854;27;119392;-58
2020/12/18 08:44:21;;;;;;;10.30;8.43;;;;;;;15.23;54.26;101685.53;4975554;27;108931;-58
2020/12/18 08:46:48;;;;;;;9.73;7.63;;;;;;;15.55;53.56;101679.84;4982682;27;97915;-58
2020/12/18 08:49:17;;;;;;;9.65;8.00;;;;;;;15.86;53.66;101674.44;5000863;27;103610;-58
2020/12/18 08:51:43;;;;;;;8.05;7.15;;;;;;;16.15;53.66;101677.38;5001433;27;98874;-58
2020/12/18 08:54:33;;;;;;;9.75;7.65;;;;;;;16.42;53.81;101677.84;5002132;27;100178;-58
2020/12/18 08:57:29;;;;;;;8.65;7.10;;;;;;;16.75;53.71;101674.78;5000198;27;97768;-58
2020/12/18 09:00:14;;;;;;;7.95;6.80;;;;;;;16.89;53.96;101679.31;5000676;27;99203;-58
2020/12/18 09:02:47;;;;;;;8.38;7.13;;;;;;;16.99;54.61;101673.00;4983204;27;98356;-58
2020/12/18 09:05:22;;;;;;;8.63;7.18;;;;;;;17.07;54.97;101672.41;4975439;27;98219;-58
2020/12/18 09:07:52;;;;;;;9.15;7.38;;;;;;;17.20;54.95;101668.25;5001776;27;98323;-58
2020/12/18 09:10:44;;;;;;;9.70;7.22;;;;;;;17.36;54.98;101671.69;5021091;27;98456;-58
2020/12/18 09:13:12;;;;;;;8.38;7.03;;;;;;;17.38;55.28;101678.47;5021059;27;98944;-58
2020/12/18 09:15:38;;;;;;;8.48;7.28;;;;;;;17.42;55.40;101671.38;5015923;27;97992;-58
2020/12/18 09:18:09;;;;;;;8.95;7.28;;;;;;;17.65;55.27;101666.28;5000309;27;122411;-58
2020/12/18 09:20:40;;;;;;;9.15;7.50;;;;;;;17.76;55.22;101664.28;4999924;27;99126;-59
2020/12/18 09:23:09;;;;;;;9.80;7.35;;;;;;;17.84;55.24;101663.66;5000909;27;99132;-58
2020/12/18 09:25:41;;;;;;;8.38;7.45;;;;;;;17.76;55.78;101665.09;5001259;27;98051;-58
2020/12/18 09:28:11;;;;;;;8.53;7.27;;;;;;;17.79;55.78;101667.25;5000356;27;98000;-58
2020/12/18 09:30:38;;;;;;;8.15;7.15;;;;;;;17.87;56.09;101663.91;5000789;27;98984;-58
2020/12/18 09:33:31;;;;;;;9.32;7.40;;;;;;;17.74;56.32;101664.56;5000491;27;99163;-58
2020/12/18 09:36:08;;;;;;;8.57;7.40;;;;;;;17.67;56.88;101664.88;5002627;27;98795;-59
2020/12/18 09:38:45;;;;;;;9.68;7.38;;;;;;;17.48;57.43;101663.13;5021568;27;97801;-58
2020/12/18 09:41:13;;;;;;;9.88;7.65;;;;;;;17.39;57.82;101658.28;5020473;27;116317;-58
2020/12/18 09:43:39;;;;;;;9.02;7.22;;;;;;;17.41;57.55;101671.66;5002389;27;105569;-58
2020/12/18 09:46:11;;;;;;;10.45;7.82;;;;;;;17.42;58.02;101665.09;5021029;27;98496;-58
2020/12/18 09:48:38;;;;;;;9.37;7.60;;;;;;;17.35;58.18;101662.69;5020667;27;97824;-58
2020/12/18 09:51:04;;;;;;;10.05;7.88;;;;;;;17.31;58.66;101658.09;5020161;27;99469;-58
2020/12/18 09:53:30;;;;;;;8.85;7.15;;;;;;;17.22;58.87;101657.88;5019135;27;128197;-58
2020/12/18 09:55:56;;;;;;;9.38;7.50;;;;;;;17.11;59.40;101659.06;5018707;27;111342;-59
2020/12/18 09:58:22;;;;;;;8.38;7.10;;;;;;;16.99;59.95;101659.41;5020202;27;122344;-58
2020/12/18 10:00:49;;;;;;;8.48;7.57;;;;;;;16.84;60.13;101654.03;5001665;27;104800;-58
2020/12/18 10:03:15;;;;;;;9.10;7.82;;;;;;;16.71;60.33;101646.47;5011457;27;125023;-58
2020/12/18 10:05:43;;;;;;;10.77;7.60;;;;;;;16.55;60.33;101646.53;4999723;27;127429;-58
2020/12/18 10:08:09;;;;;;;8.80;7.25;;;;;;;16.41;60.54;101643.56;5000094;27;98298;-58
2020/12/18 10:10:35;;;;;;;9.27;7.45;;;;;;;16.28;60.51;101640.66;5000195;27;112260;-58
2020/12/18 10:13:01;;;;;;;8.45;7.47;;;;;;;16.12;60.52;101635.25;4999279;27;128121;-58
2020/12/18 10:15:28;;;;;;;8.60;7.28;;;;;;;16.05;60.85;101640.16;5000258;27;113967;-58
2020/12/18 10:17:57;;;;;;;9.43;7.05;;;;;;;15.91;60.77;101636.38;4999615;27;97892;-58
2020/12/18 10:20:23;;;;;;;8.85;7.18;;;;;;;15.83;61.44;101634.22;4999555;27;98971;-58
2020/12/18 10:22:49;;;;;;;9.25;7.07;;;;;;;15.75;61.30;101640.22;5000163;27;98756;-58
2020/12/18 10:25:15;;;;;;;6.47;5.78;;;;;;;15.68;61.45;101646.75;5000072;27;99308;-58
2020/12/18 10:27:43;;;;;;;8.25;6.97;;;;;;;15.66;61.46;101646.19;4999886;27;97847;-58
2020/12/18 10:30:09;;;;;;;8.52;6.70;;;;;;;15.58;61.72;101652.16;5010706;27;98716;-58
2020/12/18 10:32:35;;;;;;;7.60;6.28;;;;;;;15.56;61.70;101648.06;5019262;27;128184;-58
2020/12/18 10:35:01;;;;;;;8.30;6.25;;;;;;;15.54;61.69;101652.97;5019362;27;109781;-58
2020/12/18 10:37:28;;;;;;;6.95;5.97;;;;;;;15.50;61.66;101643.72;5019869;27;111228;-58
2020/12/18 10:39:54;;;;;;;8.60;6.13;;;;;;;15.49;61.45;101644.81;5008412;27;98295;-58
2020/12/18 10:42:20;;;;;;;7.53;5.80;;;;;;;15.47;61.47;101643.16;4999750;27;97675;-58
2020/12/18 10:44:46;;;;;;;7.50;6.13;;;;;;;15.47;61.62;101642.38;4999392;27;98517;-58
2020/12/18 10:47:12;;;;;;;7.10;5.85;;;;;;;15.46;61.68;101641.56;4981982;27;97830;-58
2020/12/18 10:49:38;;;;;;;8.05;6.03;;;;;;;15.44;61.54;101641.03;5001529;27;128368;-58
2020/12/18 10:52:05;;;;;;;7.72;6.50;;;;;;;15.47;61.57;101639.66;5011667;27;127239;-58
2020/12/18 10:54:31;;;;;;;7.80;6.35;;;;;;;15.47;61.38;101640.47;4999948;27;97837;-58
2020/12/18 10:56:57;;;;;;;7.00;6.20;;;;;;;15.45;61.71;101637.22;4970129;27;121627;-58
2020/12/18 10:59:26;;;;;;;7.32;5.75;;;;;;;15.47;61.67;101635.03;5018382;27;99378;-58
2020/12/18 11:01:53;;;;;;;7.07;5.95;;;;;;;15.45;61.79;101631.78;5019842;27;98370;-58
2020/12/18 11:04:19;;;;;;;8.25;6.32;;;;;;;15.47;61.98;101631.50;5019968;27;98453;-58
2020/12/18 11:06:46;;;;;;;10.77;8.02;;;;;;;15.48;61.63;101638.56;5016912;27;97892;-58
2020/12/18 11:09:12;;;;;;;8.98;7.55;;;;;;;15.48;61.76;101627.69;5007583;27;98368;-58
2020/12/18 11:11:38;;;;;;;9.32;7.45;;;;;;;15.48;61.70;101630.41;5019520;27;99186;-58
2020/12/18 11:14:05;;;;;;;8.73;7.20;;;;;;;15.51;62.05;101638.00;5020000;27;98091;-58
2020/12/18 11:16:32;;;;;;;7.88;6.65;;;;;;;15.56;61.93;101642.63;5020504;27;97823;-58
2020/12/18 11:19:01;;;;;;;7.82;6.38;;;;;;;15.54;61.44;101637.47;5019627;27;99382;-58
2020/12/18 11:21:30;;;;;;;8.15;6.70;;;;;;;15.58;61.34;101635.84;5018902;27;98243;-58
2020/12/18 11:23:57;;;;;;;7.53;6.70;;;;;;;15.58;61.65;101635.03;5009950;27;112270;-58
2020/12/18 11:26:23;;;;;;;7.18;5.70;;;;;;;15.61;61.27;101629.06;5002668;27;98057;-58